CheckWX is a tool to help pilots better visualize weather data.  It is not intended as a substitute for an official pre-flight weather briefing.

04:52:56 UTC

3LF METAR
Litchfield Municipal Airport
Litchfield, Illinois, USA
Current

18 mins ago

K3LF 260435Z AUTO 14003KT 5SM RA SCT021 BKN032 OVC060 21/21 A2989 RMK AO2 T02110208
Observed
Aug-26 @ 04:35 UTC
Wind
  • 140° at 3 KTS
Visibility
5 SM
Flight Rules
MVFR
Conditions
Rain
Cloud Levels
  • Scattered at 2,100' AGL
  • Broken at 3,200' AGL
  • Overcast at 6,000' AGL
Temperature
21°C / 70°F
Dewpoint
21°C / 70°F
Humidity
100%
Altimeter
29.89" Hg
Pressure
1012.22 hPa
Previous

38 mins ago

K3LF 260415Z AUTO 15005KT 7SM +RA SCT024 BKN060 OVC070 21/21 A2989 RMK AO2 T02120208
Observed
Aug-26 @ 04:15 UTC
Wind
  • 150° at 5 KTS
Visibility
7 SM
Flight Rules
VFR
Conditions
Heavy Rain
Cloud Levels
  • Scattered at 2,400' AGL
  • Broken at 6,000' AGL
  • Overcast at 7,000' AGL
Temperature
21°C / 70°F
Dewpoint
21°C / 70°F
Humidity
100%
Altimeter
29.89" Hg
Pressure
1012.22 hPa
Previous

58 mins ago

K3LF 260355Z AUTO 13006KT 10SM -RA BKN049 OVC060 21/21 A2989 RMK AO2 T02120207
Observed
Aug-26 @ 03:55 UTC
Wind
  • 130° at 6 KTS
Visibility
10 SM
Flight Rules
VFR
Conditions
Light Rain
Cloud Levels
  • Broken at 4,900' AGL
  • Overcast at 6,000' AGL
Temperature
21°C / 70°F
Dewpoint
21°C / 70°F
Humidity
100%
Altimeter
29.89" Hg
Pressure
1012.22 hPa